createdAt,value
2018-02-25T00:00:05.532Z,-2.92
2018-02-25T00:02:33.135Z,-3.00
2018-02-25T00:05:00.727Z,-3.08
2018-02-25T00:07:28.289Z,-3.10
2018-02-25T00:09:55.846Z,-3.11
2018-02-25T00:12:23.376Z,-3.16
2018-02-25T00:14:50.925Z,-3.12
2018-02-25T00:17:18.505Z,-3.17
2018-02-25T00:19:46.389Z,-3.14
2018-02-25T00:22:31.970Z,-3.19
2018-02-25T00:24:59.503Z,-3.24
2018-02-25T00:27:27.093Z,-3.23
2018-02-25T00:29:54.714Z,-3.23
2018-02-25T00:32:22.292Z,-3.27
2018-02-25T00:34:49.863Z,-3.19
2018-02-25T00:37:17.425Z,-3.14
2018-02-25T00:39:45.120Z,-3.20
2018-02-25T00:42:12.741Z,-3.24
2018-02-25T00:44:40.366Z,-3.19
2018-02-25T00:47:07.894Z,-3.21
2018-02-25T00:49:35.485Z,-3.25
2018-02-25T00:52:03.091Z,-3.30
2018-02-25T00:54:30.650Z,-3.32
2018-02-25T00:56:58.200Z,-3.26
2018-02-25T00:59:26.100Z,-3.32
2018-02-25T01:01:53.628Z,-3.38
2018-02-25T01:04:21.189Z,-3.38
2018-02-25T01:06:48.757Z,-3.35
2018-02-25T01:09:16.644Z,-3.35
2018-02-25T01:11:44.181Z,-3.40
2018-02-25T01:14:11.883Z,-3.45
2018-02-25T01:16:39.396Z,-3.48
2018-02-25T01:19:06.960Z,-3.45
2018-02-25T01:21:34.550Z,-3.41
2018-02-25T01:24:02.109Z,-3.44
2018-02-25T01:26:29.638Z,-3.40
2018-02-25T01:28:57.224Z,-3.39
2018-02-25T01:31:24.752Z,-3.32
2018-02-25T01:33:52.343Z,-3.36
2018-02-25T01:36:19.934Z,-3.43
2018-02-25T01:38:47.465Z,-3.46
2018-02-25T01:41:15.108Z,-3.39
2018-02-25T01:43:42.658Z,-3.43
2018-02-25T01:46:10.238Z,-3.36
2018-02-25T01:48:37.822Z,-3.34
2018-02-25T01:51:05.427Z,-3.36
2018-02-25T01:53:32.956Z,-3.39
2018-02-25T01:56:00.536Z,-3.42
2018-02-25T01:58:28.179Z,-3.49
2018-02-25T02:00:55.739Z,-3.48
2018-02-25T02:03:23.299Z,-3.53
2018-02-25T02:05:50.863Z,-3.58
2018-02-25T02:08:18.380Z,-3.69
2018-02-25T02:10:45.901Z,-3.66
2018-02-25T02:13:13.464Z,-3.71
2018-02-25T02:15:41.304Z,-3.74
2018-02-25T02:18:08.868Z,-3.67
2018-02-25T02:20:36.516Z,-3.65
2018-02-25T02:23:04.066Z,-3.69
2018-02-25T02:25:31.598Z,-3.69
2018-02-25T02:27:59.159Z,-3.61
2018-02-25T02:30:26.982Z,-3.69
2018-02-25T02:32:54.841Z,-3.72
2018-02-25T02:37:56.613Z,-3.92
2018-02-25T02:40:24.193Z,-3.95
2018-02-25T02:42:51.731Z,-3.95
2018-02-25T02:45:19.270Z,-3.84
2018-02-25T02:47:46.842Z,-3.91
2018-02-25T02:50:14.358Z,-3.93
2018-02-25T02:52:41.893Z,-3.95
2018-02-25T02:55:09.482Z,-4.02
2018-02-25T02:57:37.314Z,-4.08
2018-02-25T03:00:04.870Z,-4.05
2018-02-25T03:02:32.542Z,-4.21
2018-02-25T03:05:00.071Z,-4.21
2018-02-25T03:07:27.611Z,-4.27
2018-02-25T03:09:55.153Z,-4.26
2018-02-25T03:12:22.751Z,-4.15
2018-02-25T03:14:50.302Z,-4.17
2018-02-25T03:17:17.919Z,-4.15
2018-02-25T03:19:45.483Z,-4.19
2018-02-25T03:22:13.008Z,-4.26
2018-02-25T03:24:40.569Z,-4.29
2018-02-25T03:27:08.343Z,-4.23
2018-02-25T03:29:35.888Z,-4.22
2018-02-25T03:32:03.447Z,-4.22
2018-02-25T03:34:31.330Z,-4.21
2018-02-25T03:36:58.879Z,-4.28
2018-02-25T03:39:26.697Z,-4.21
2018-02-25T03:41:54.230Z,-4.29
2018-02-25T03:44:21.751Z,-4.27
2018-02-25T03:46:49.305Z,-4.31
2018-02-25T03:49:16.838Z,-4.28
2018-02-25T03:51:44.370Z,-4.24
2018-02-25T03:54:12.221Z,-4.24
2018-02-25T03:56:39.766Z,-4.25
2018-02-25T03:59:07.301Z,-4.33
2018-02-25T04:01:34.931Z,-4.40
2018-02-25T04:04:02.522Z,-4.59
2018-02-25T04:06:30.039Z,-4.51
2018-02-25T04:08:57.698Z,-4.48
2018-02-25T04:11:25.223Z,-4.53
2018-02-25T04:13:52.752Z,-4.53
2018-02-25T04:16:20.310Z,-4.51
2018-02-25T04:18:47.827Z,-4.47
2018-02-25T04:21:15.351Z,-4.56
2018-02-25T04:23:42.948Z,-4.55
2018-02-25T04:26:10.478Z,-4.60
2018-02-25T04:28:38.014Z,-4.52
2018-02-25T04:31:05.584Z,-4.56
2018-02-25T04:33:33.410Z,-4.57
2018-02-25T04:36:00.970Z,-4.56
2018-02-25T04:38:28.524Z,-4.60
2018-02-25T04:40:56.086Z,-4.59
2018-02-25T04:43:23.610Z,-4.60
2018-02-25T04:45:51.247Z,-4.56
2018-02-25T04:48:19.071Z,-4.57
2018-02-25T04:50:46.637Z,-4.59
2018-02-25T04:53:14.245Z,-4.68
2018-02-25T04:55:41.794Z,-4.71
2018-02-25T04:58:10.106Z,-4.62
2018-02-25T05:00:37.737Z,-4.61
2018-02-25T05:03:05.574Z,-4.52
2018-02-25T05:05:33.101Z,-4.58
2018-02-25T05:08:00.669Z,-4.59
2018-02-25T05:10:28.454Z,-4.63
2018-02-25T05:12:56.314Z,-4.50
2018-02-25T05:15:24.186Z,-4.54
2018-02-25T05:17:51.710Z,-4.49
2018-02-25T05:20:19.512Z,-4.50
2018-02-25T05:22:47.101Z,-4.57
2018-02-25T05:25:14.651Z,-4.62
2018-02-25T05:27:42.196Z,-4.58
2018-02-25T05:30:09.775Z,-4.58
2018-02-25T05:32:37.360Z,-4.59
2018-02-25T05:35:04.930Z,-4.65
2018-02-25T05:37:32.742Z,-4.73
2018-02-25T05:40:00.260Z,-4.68
2018-02-25T05:42:27.789Z,-4.68
2018-02-25T05:44:55.342Z,-4.68
2018-02-25T05:47:23.195Z,-4.69
2018-02-25T05:49:51.061Z,-4.59
2018-02-25T05:52:18.688Z,-4.59
2018-02-25T05:54:46.220Z,-4.83
2018-02-25T05:57:13.746Z,-4.84
2018-02-25T05:59:41.338Z,-4.83
2018-02-25T06:02:08.888Z,-4.83
2018-02-25T06:04:36.427Z,-4.81
2018-02-25T06:07:04.002Z,-4.96
2018-02-25T06:09:31.853Z,-4.97
2018-02-25T06:11:59.374Z,-4.95
2018-02-25T06:14:27.295Z,-4.95
2018-02-25T06:16:54.814Z,-4.95
2018-02-25T06:19:22.343Z,-4.96
2018-02-25T06:21:49.895Z,-5.00
2018-02-25T06:24:17.461Z,-5.01
2018-02-25T06:26:45.037Z,-4.99
2018-02-25T06:29:12.852Z,-4.99
2018-02-25T06:31:40.497Z,-4.97
2018-02-25T06:34:08.288Z,-4.87
2018-02-25T06:36:35.838Z,-4.80
2018-02-25T06:39:03.408Z,-4.73
2018-02-25T06:41:31.266Z,-4.72
2018-02-25T06:43:58.848Z,-4.78
2018-02-25T06:46:26.361Z,-4.75
2018-02-25T06:48:54.155Z,-4.77
2018-02-25T06:51:21.714Z,-4.75
2018-02-25T06:53:49.258Z,-4.74
2018-02-25T06:56:16.785Z,-4.79
2018-02-25T06:58:44.349Z,-4.73
2018-02-25T07:01:11.893Z,-4.67
2018-02-25T07:03:39.485Z,-4.68
2018-02-25T07:06:07.308Z,-4.58
2018-02-25T07:08:34.834Z,-4.61
2018-02-25T07:11:02.373Z,-4.46
2018-02-25T07:13:29.980Z,-4.47
2018-02-25T07:15:57.534Z,-4.65
2018-02-25T07:18:25.072Z,-4.71
2018-02-25T07:20:53.065Z,-4.66
2018-02-25T07:23:20.670Z,-4.56
2018-02-25T07:25:48.498Z,-4.56
2018-02-25T07:28:16.564Z,-4.46
2018-02-25T07:30:44.090Z,-4.41
2018-02-25T07:33:11.630Z,-4.40
2018-02-25T07:35:39.220Z,-4.31
2018-02-25T07:38:06.843Z,-4.35
2018-02-25T07:40:34.452Z,-4.20
2018-02-25T07:43:02.310Z,-4.11
2018-02-25T07:45:30.997Z,-4.10
2018-02-25T07:48:00.886Z,-4.07
2018-02-25T07:50:29.184Z,-4.10
2018-02-25T07:52:57.806Z,-4.22
2018-02-25T07:55:25.491Z,-4.24
2018-02-25T07:57:53.331Z,-4.19
2018-02-25T08:00:20.852Z,-4.20
2018-02-25T08:02:48.382Z,-4.15
2018-02-25T08:05:15.986Z,-4.02
2018-02-25T08:07:43.570Z,-3.95
2018-02-25T08:10:11.175Z,-3.87
2018-02-25T08:12:38.736Z,-3.80
2018-02-25T08:15:06.567Z,-3.81
2018-02-25T08:17:34.587Z,-3.76
2018-02-25T08:20:02.140Z,-3.73
2018-02-25T08:22:30.077Z,-3.72
2018-02-25T08:24:57.633Z,-3.70
2018-02-25T08:27:25.195Z,-3.65
2018-02-25T08:29:52.714Z,-3.44
2018-02-25T08:32:20.284Z,-3.51
2018-02-25T08:34:47.906Z,-3.54
2018-02-25T08:37:15.497Z,-3.52
2018-02-25T08:39:43.304Z,-3.55
2018-02-25T08:42:10.927Z,-3.59
2018-02-25T08:44:38.907Z,-3.57
2018-02-25T08:47:06.462Z,-3.53
2018-02-25T08:49:34.047Z,-3.42
2018-02-25T08:52:01.610Z,-3.42
2018-02-25T08:54:29.173Z,-3.31
2018-02-25T08:56:56.734Z,-3.32
2018-02-25T08:59:24.601Z,-3.24
2018-02-25T09:01:52.148Z,-3.24
2018-02-25T09:04:19.758Z,-3.32
2018-02-25T09:06:47.306Z,-3.33
2018-02-25T09:09:14.891Z,-3.28
2018-02-25T09:11:42.480Z,-3.12
2018-02-25T09:14:10.024Z,-2.95
2018-02-25T09:16:38.072Z,-2.64
2018-02-25T09:19:05.677Z,-2.39
2018-02-25T09:21:33.240Z,-2.12
2018-02-25T09:24:00.808Z,-2.22
2018-02-25T09:26:28.428Z,-2.10
2018-02-25T09:28:55.970Z,-1.90
2018-02-25T09:31:23.504Z,-1.67
2018-02-25T09:33:51.166Z,-1.50
2018-02-25T09:36:18.744Z,-1.26
2018-02-25T09:38:46.310Z,-1.12
2018-02-25T09:41:13.881Z,-1.03
2018-02-25T09:43:41.434Z,-1.26
2018-02-25T09:46:08.983Z,-1.12
2018-02-25T09:48:36.571Z,-0.95
2018-02-25T09:51:04.127Z,-0.78
2018-02-25T09:53:31.720Z,-0.96
2018-02-25T09:55:59.347Z,-0.87
2018-02-25T09:58:26.902Z,-0.66
2018-02-25T10:00:56.181Z,-1.05
2018-02-25T10:03:23.759Z,-1.24
2018-02-25T10:05:51.410Z,-1.39
2018-02-25T10:08:18.944Z,-1.10
2018-02-25T10:10:46.575Z,-0.72
2018-02-25T10:13:14.136Z,-0.30
2018-02-25T10:15:41.697Z,-0.31
2018-02-25T10:18:09.301Z,-0.35
2018-02-25T10:20:37.150Z,-0.31
2018-02-25T10:23:04.710Z,-0.39
2018-02-25T10:25:32.268Z,-0.14
2018-02-25T10:27:59.804Z,-0.05
2018-02-25T10:30:27.378Z,-0.09
2018-02-25T10:32:55.027Z,-0.05
2018-02-25T10:35:22.580Z,-0.22
2018-02-25T10:37:50.156Z,-0.13
2018-02-25T10:40:17.799Z,0.05
2018-02-25T10:42:45.364Z,0.36
2018-02-25T10:45:12.890Z,0.18
2018-02-25T10:47:40.598Z,0.68
2018-02-25T10:50:10.054Z,1.59
2018-02-25T10:52:37.567Z,2.50
2018-02-25T10:55:05.198Z,3.00
2018-02-25T10:57:33.040Z,3.85
2018-02-25T11:00:00.581Z,4.31
2018-02-25T11:02:28.242Z,4.46
2018-02-25T11:04:55.792Z,5.00
2018-02-25T11:07:23.590Z,5.41
2018-02-25T11:09:51.195Z,5.90
2018-02-25T11:12:18.774Z,5.62
2018-02-25T11:14:46.323Z,5.28
2018-02-25T11:17:13.894Z,5.63
2018-02-25T11:19:41.554Z,6.21
2018-02-25T11:22:09.118Z,7.79
2018-02-25T11:24:37.026Z,8.78
2018-02-25T11:27:04.573Z,10.12
2018-02-25T11:29:32.200Z,10.06
2018-02-25T11:31:59.804Z,9.84
2018-02-25T11:34:27.399Z,9.27
2018-02-25T11:36:54.917Z,8.83
2018-02-25T11:39:22.471Z,8.19
2018-02-25T11:41:50.655Z,8.96
2018-02-25T11:44:18.190Z,8.22
2018-02-25T11:46:45.758Z,8.64
2018-02-25T11:49:13.358Z,7.64
2018-02-25T11:51:41.242Z,7.42
2018-02-25T11:54:08.802Z,7.20
2018-02-25T11:56:36.314Z,7.67
2018-02-25T11:59:04.107Z,6.82
2018-02-25T12:01:31.784Z,6.06
2018-02-25T12:04:00.218Z,5.77
2018-02-25T12:06:27.832Z,5.98
2018-02-25T12:08:55.419Z,5.82
2018-02-25T12:11:23.013Z,5.46
2018-02-25T12:13:50.747Z,4.25
2018-02-25T12:16:18.346Z,3.61
2018-02-25T12:18:46.151Z,3.81
2018-02-25T12:21:13.666Z,4.13
2018-02-25T12:23:41.219Z,3.22
2018-02-25T12:26:08.791Z,2.72
2018-02-25T12:28:36.704Z,2.69
2018-02-25T12:31:04.361Z,3.19
2018-02-25T12:33:31.919Z,3.01
2018-02-25T12:35:59.538Z,3.02
2018-02-25T12:38:27.145Z,2.68
2018-02-25T12:40:54.703Z,2.25
2018-02-25T12:43:22.405Z,2.05
2018-02-25T12:45:50.035Z,2.17
2018-02-25T12:48:17.917Z,2.56
2018-02-25T12:50:45.487Z,2.81
2018-02-25T12:53:13.227Z,2.95
2018-02-25T12:55:40.773Z,3.07
2018-02-25T12:58:08.326Z,3.04
2018-02-25T13:00:35.919Z,3.04
2018-02-25T13:03:03.563Z,2.64
2018-02-25T13:05:31.120Z,2.31
2018-02-25T13:10:54.992Z,2.15
2018-02-25T13:13:22.618Z,2.22
2018-02-25T13:15:50.237Z,1.97
2018-02-25T13:18:17.786Z,1.67
2018-02-25T13:20:45.386Z,1.48
2018-02-25T13:23:13.059Z,1.60
2018-02-25T13:25:40.612Z,1.60
2018-02-25T13:28:08.177Z,1.48
2018-02-25T13:30:35.692Z,1.33
2018-02-25T13:33:03.307Z,1.10
2018-02-25T13:35:30.968Z,1.12
2018-02-25T13:37:58.520Z,1.23
2018-02-25T13:40:26.046Z,0.90
2018-02-25T13:42:53.610Z,0.83
2018-02-25T13:45:21.138Z,0.84
2018-02-25T13:47:48.813Z,0.98
2018-02-25T13:50:16.603Z,1.07
2018-02-25T13:52:44.562Z,1.01
2018-02-25T13:55:12.080Z,1.18
2018-02-25T13:57:39.675Z,1.27
2018-02-25T14:00:07.199Z,1.33
2018-02-25T14:02:34.724Z,1.44
2018-02-25T14:05:02.288Z,1.65
2018-02-25T14:07:29.827Z,1.56
2018-02-25T14:09:57.363Z,1.21
2018-02-25T14:12:24.970Z,1.27
2018-02-25T14:14:52.486Z,1.36
2018-02-25T14:17:20.129Z,1.21
2018-02-25T14:19:47.702Z,1.19
2018-02-25T14:22:15.243Z,1.20
2018-02-25T14:24:42.771Z,1.15
2018-02-25T14:27:11.510Z,1.28
2018-02-25T14:29:39.048Z,1.36
2018-02-25T14:32:06.586Z,1.45
2018-02-25T14:34:36.174Z,1.76
2018-02-25T14:37:03.975Z,2.25
2018-02-25T14:39:31.543Z,2.65
2018-02-25T14:41:59.128Z,3.72
2018-02-25T14:44:26.655Z,4.53
2018-02-25T14:46:54.352Z,4.21
2018-02-25T14:49:21.931Z,4.81
2018-02-25T14:51:49.513Z,4.54
2018-02-25T14:54:17.094Z,4.13
2018-02-25T14:56:44.930Z,3.09
2018-02-25T14:59:12.800Z,2.72
2018-02-25T15:01:40.322Z,2.28
2018-02-25T15:04:07.887Z,1.93
2018-02-25T15:06:35.398Z,1.53
2018-02-25T15:09:02.947Z,1.03
2018-02-25T15:11:30.515Z,0.79
2018-02-25T15:13:58.467Z,0.72
2018-02-25T15:16:25.978Z,0.69
2018-02-25T15:18:54.038Z,0.64
2018-02-25T15:21:21.621Z,0.44
2018-02-25T15:23:49.446Z,0.38
2018-02-25T15:26:16.991Z,0.32
2018-02-25T15:28:44.554Z,0.26
2018-02-25T15:31:12.159Z,0.11
2018-02-25T15:33:39.802Z,-0.20
2018-02-25T15:36:07.638Z,-0.21
2018-02-25T15:38:35.516Z,-0.20
2018-02-25T15:41:03.103Z,-0.25
2018-02-25T15:43:30.630Z,-0.46
2018-02-25T15:45:58.160Z,-0.41
2018-02-25T15:48:25.728Z,-0.39
2018-02-25T15:50:53.269Z,-0.35
2018-02-25T15:53:21.271Z,-0.37
2018-02-25T15:55:49.929Z,-0.31
2018-02-25T15:58:17.453Z,-0.24
2018-02-25T16:00:44.986Z,-0.32
2018-02-25T16:03:12.545Z,-0.33
2018-02-25T16:05:40.073Z,-0.41
2018-02-25T16:08:09.181Z,-0.35
2018-02-25T16:10:36.743Z,-0.34
2018-02-25T16:13:04.265Z,-0.37
2018-02-25T16:15:31.809Z,-0.41
2018-02-25T16:17:59.395Z,-0.47
2018-02-25T16:20:26.934Z,-0.51
2018-02-25T16:22:55.496Z,-0.56
2018-02-25T16:25:23.144Z,-0.45
2018-02-25T16:27:50.706Z,-0.52
2018-02-25T16:30:18.483Z,-0.52
2018-02-25T16:32:46.036Z,-0.60
2018-02-25T16:35:13.759Z,-0.58
2018-02-25T16:37:41.292Z,-0.64
2018-02-25T16:40:08.892Z,-0.59
2018-02-25T16:42:36.513Z,-0.58
2018-02-25T16:45:04.173Z,-0.63
2018-02-25T16:47:32.020Z,-0.67
2018-02-25T16:49:59.595Z,-0.78
2018-02-25T16:52:27.178Z,-0.82
2018-02-25T16:54:54.729Z,-0.84
2018-02-25T16:57:22.459Z,-0.81
2018-02-25T16:59:50.002Z,-0.89
2018-02-25T17:02:17.917Z,-0.87
2018-02-25T17:04:45.504Z,-0.88
2018-02-25T17:07:13.035Z,-0.97
2018-02-25T17:09:40.690Z,-0.91
2018-02-25T17:12:08.267Z,-1.08
2018-02-25T17:14:35.805Z,-1.01
2018-02-25T17:17:03.414Z,-0.96
2018-02-25T17:19:31.141Z,-0.92
2018-02-25T17:21:58.878Z,-1.08
2018-02-25T17:24:26.481Z,-1.02
2018-02-25T17:26:54.029Z,-1.02
2018-02-25T17:29:21.566Z,-0.94
2018-02-25T17:31:49.155Z,-1.07
2018-02-25T17:34:16.783Z,-1.07
2018-02-25T17:36:44.346Z,-1.02
2018-02-25T17:39:12.235Z,-1.02
2018-02-25T17:41:39.808Z,-1.00
2018-02-25T17:44:07.866Z,-1.05
2018-02-25T17:46:35.422Z,-1.04
2018-02-25T17:49:04.759Z,-1.04
2018-02-25T17:51:32.586Z,-1.02
2018-02-25T17:54:00.153Z,-1.07
2018-02-25T17:56:27.688Z,-1.02
2018-02-25T17:58:55.224Z,-0.99
2018-02-25T18:01:22.810Z,-1.03
2018-02-25T18:03:50.452Z,-0.99
2018-02-25T18:06:18.005Z,-0.96
2018-02-25T18:08:45.579Z,-0.93
2018-02-25T18:11:13.093Z,-1.06
2018-02-25T18:13:40.668Z,-1.05
2018-02-25T18:16:08.235Z,-1.01
2018-02-25T18:18:35.883Z,-1.02
2018-02-25T18:21:03.533Z,-0.96
2018-02-25T18:23:31.125Z,-0.97
2018-02-25T18:28:32.719Z,-0.98
2018-02-25T18:31:01.349Z,-0.91
2018-02-25T18:33:29.176Z,-0.92
2018-02-25T18:35:56.987Z,-0.97
2018-02-25T18:38:24.552Z,-1.10
2018-02-25T18:40:52.149Z,-1.13
2018-02-25T18:43:19.823Z,-1.21
2018-02-25T18:45:47.398Z,-1.21
2018-02-25T18:48:14.990Z,-1.21
2018-02-25T18:50:42.566Z,-1.12
2018-02-25T18:53:10.245Z,-1.21
2018-02-25T18:55:37.987Z,-1.21
2018-02-25T18:58:06.566Z,-1.23
2018-02-25T19:00:34.121Z,-1.33
2018-02-25T19:03:01.692Z,-1.36
2018-02-25T19:05:29.255Z,-1.44
2018-02-25T19:07:56.834Z,-1.39
2018-02-25T19:10:24.399Z,-1.36
2018-02-25T19:12:51.996Z,-1.34
2018-02-25T19:15:19.537Z,-1.37
2018-02-25T19:17:47.098Z,-1.36
2018-02-25T19:20:14.726Z,-1.28
2018-02-25T19:22:42.300Z,-1.35
2018-02-25T19:25:10.058Z,-1.38
2018-02-25T19:27:38.334Z,-1.31
2018-02-25T19:30:07.017Z,-1.33
2018-02-25T19:32:34.867Z,-1.25
2018-02-25T19:35:02.419Z,-1.28
2018-02-25T19:37:35.494Z,-1.24
2018-02-25T19:40:03.400Z,-1.27
2018-02-25T19:42:31.595Z,-1.19
2018-02-25T19:44:59.169Z,-1.23
2018-02-25T19:47:26.787Z,-1.23
2018-02-25T19:49:54.341Z,-1.19
2018-02-25T19:52:21.871Z,-1.11
2018-02-25T19:54:49.442Z,-1.23
2018-02-25T19:57:16.975Z,-1.22
2018-02-25T19:59:44.525Z,-1.29
2018-02-25T20:02:12.102Z,-1.37
2018-02-25T20:04:39.660Z,-1.33
2018-02-25T20:07:07.289Z,-1.38
2018-02-25T20:09:34.868Z,-1.41
2018-02-25T20:12:02.397Z,-1.53
2018-02-25T20:14:29.933Z,-1.50
2018-02-25T20:16:57.495Z,-1.51
2018-02-25T20:19:25.039Z,-1.48
2018-02-25T20:21:52.683Z,-1.55
2018-02-25T20:24:20.335Z,-1.55
2018-02-25T20:26:48.099Z,-1.52
2018-02-25T20:29:15.718Z,-1.51
2018-02-25T20:31:43.291Z,-1.58
2018-02-25T20:34:11.465Z,-1.50
2018-02-25T20:36:40.074Z,-1.56
2018-02-25T20:39:08.172Z,-1.51
2018-02-25T20:41:35.747Z,-1.52
2018-02-25T20:44:03.756Z,-1.60
2018-02-25T20:46:31.388Z,-1.60
2018-02-25T20:48:59.319Z,-1.61
2018-02-25T20:51:26.856Z,-1.66
2018-02-25T20:53:54.565Z,-1.68
2018-02-25T20:56:22.205Z,-1.60
2018-02-25T20:58:49.815Z,-1.64
2018-02-25T21:01:17.437Z,-1.69
2018-02-25T21:03:45.017Z,-1.62
2018-02-25T21:06:12.612Z,-1.59
2018-02-25T21:08:40.527Z,-1.58
2018-02-25T21:11:08.133Z,-1.58
2018-02-25T21:13:35.657Z,-1.62
2018-02-25T21:16:03.242Z,-1.59
2018-02-25T21:18:32.331Z,-1.69
2018-02-25T21:21:00.372Z,-1.88
2018-02-25T21:23:29.149Z,-1.96
2018-02-25T21:25:56.827Z,-1.88
2018-02-25T21:28:24.370Z,-1.84
2018-02-25T21:30:57.862Z,-1.89
2018-02-25T21:33:26.022Z,-1.94
2018-02-25T21:35:53.602Z,-1.98
2018-02-25T21:38:21.169Z,-2.00
2018-02-25T21:40:48.820Z,-2.07
2018-02-25T21:43:16.390Z,-2.21
2018-02-25T21:45:43.952Z,-2.24
2018-02-25T21:48:12.540Z,-2.23
2018-02-25T21:50:40.101Z,-2.24
2018-02-25T21:53:07.716Z,-2.24
2018-02-25T21:55:35.285Z,-2.36
2018-02-25T21:58:08.542Z,-2.30
2018-02-25T22:00:41.562Z,-2.28
2018-02-25T22:03:15.574Z,-2.30
2018-02-25T22:05:43.126Z,-2.27
2018-02-25T22:08:10.652Z,-2.14
2018-02-25T22:10:38.350Z,-2.09
2018-02-25T22:13:05.882Z,-2.13
2018-02-25T22:15:33.442Z,-2.18
2018-02-25T22:18:01.294Z,-2.16
2018-02-25T22:20:29.138Z,-2.08
2018-02-25T22:22:56.657Z,-2.19
2018-02-25T22:25:24.327Z,-2.22
2018-02-25T22:27:52.155Z,-2.22
2018-02-25T22:30:19.709Z,-2.23
2018-02-25T22:32:47.607Z,-2.26
2018-02-25T22:35:15.144Z,-2.27
2018-02-25T22:37:42.844Z,-2.32
2018-02-25T22:40:10.672Z,-2.39
2018-02-25T22:42:38.237Z,-2.38
2018-02-25T22:45:06.081Z,-2.37
2018-02-25T22:47:33.965Z,-2.39
2018-02-25T22:50:01.910Z,-2.54
2018-02-25T22:52:29.684Z,-2.60
2018-02-25T22:54:57.266Z,-2.68
2018-02-25T22:57:25.114Z,-2.57
2018-02-25T22:59:52.674Z,-2.49
2018-02-25T23:02:20.285Z,-2.50
2018-02-25T23:04:48.100Z,-2.48
2018-02-25T23:07:15.708Z,-2.46
2018-02-25T23:09:43.286Z,-2.54
2018-02-25T23:12:10.818Z,-2.52
2018-02-25T23:14:38.343Z,-2.52
2018-02-25T23:17:05.903Z,-2.54
2018-02-25T23:19:33.776Z,-2.55
2018-02-25T23:22:01.355Z,-2.48
2018-02-25T23:24:28.924Z,-2.57
2018-02-25T23:26:56.514Z,-2.74
2018-02-25T23:29:24.085Z,-2.66
2018-02-25T23:31:51.654Z,-2.63
2018-02-25T23:34:19.192Z,-2.73
2018-02-25T23:36:46.747Z,-2.79
2018-02-25T23:39:14.566Z,-2.87
2018-02-25T23:41:42.114Z,-2.78
2018-02-25T23:44:09.650Z,-2.75
2018-02-25T23:46:37.215Z,-2.67
2018-02-25T23:49:04.780Z,-2.75
2018-02-25T23:51:32.337Z,-2.86
2018-02-25T23:53:59.897Z,-2.88
2018-02-25T23:56:27.446Z,-2.94
2018-02-25T23:58:54.974Z,-2.84
